Time;durP1;ratioP1;P1;durP2;ratioP2;P2;SDS_P1;SDS_P2;PMS_P1;PMS_P2;Temp;Humidity;BMP_temperature;BMP_pressure;BME280_temperature;BME280_humidity;BME280_pressure;Samples;Min_cycle;Max_cycle;Signal;HPM_P1;HPM_P2
2023/12/09 00:01:59;;;;;;;;;;;6.60;99.90;;;5.95;100.00;97630.50;5079177;28;1439;-70
2023/12/09 00:04:26;;;;;;;;;;;6.70;99.90;;;5.93;100.00;97641.69;5075023;28;1588;-69
2023/12/09 00:06:53;;;;;;;;;;;6.60;99.90;;;6.02;100.00;97638.94;5075660;28;1975;-70
2023/12/09 00:09:20;;;;;;;;;;;6.60;99.90;;;6.05;100.00;97644.88;5077025;28;1588;-70
2023/12/09 00:11:47;;;;;;;;;;;6.60;99.90;;;5.96;100.00;97649.41;5081250;28;1702;-69
2023/12/09 00:14:14;;;;;;;;;;;6.60;99.90;;;6.01;100.00;97650.13;5076318;28;1563;-70
2023/12/09 00:16:41;;;;;;;;;;;6.60;99.90;;;5.97;100.00;97646.78;5076454;28;1540;-69
2023/12/09 00:19:09;;;;;;;;;;;6.60;99.90;;;6.04;100.00;97645.78;5076152;28;5033;-70
2023/12/09 00:21:36;;;;;;;;;;;6.60;99.90;;;5.95;100.00;97658.00;5079461;28;2903;-70
2023/12/09 00:24:03;;;;;;;;;;;6.60;99.90;;;6.02;100.00;97649.25;5080609;28;1454;-70
2023/12/09 00:26:31;;;;;;;;;;;6.60;99.90;;;5.93;100.00;97650.28;5080696;28;2297;-70
2023/12/09 00:28:58;;;;;;;;;;;6.60;99.90;;;5.90;100.00;97644.34;5079298;28;1462;-70
2023/12/09 00:31:25;;;;;;;;;;;6.60;99.90;;;5.93;100.00;97646.84;5079463;28;1427;-70
2023/12/09 00:33:52;;;;;;;;;;;6.60;99.90;;;5.94;100.00;97648.56;5077792;28;1427;-70
2023/12/09 00:36:19;;;;;;;;;;;6.60;99.90;;;5.90;100.00;97647.75;5073736;28;1892;-70
2023/12/09 00:38:46;;;;;;;;;;;6.60;99.90;;;5.92;100.00;97648.56;5076079;28;1480;-70
2023/12/09 00:41:13;;;;;;;;;;;6.60;99.90;;;5.90;100.00;97646.94;5077715;28;1431;-70
2023/12/09 00:43:40;;;;;;;;;;;6.70;99.90;;;5.86;100.00;97647.00;5077265;28;1387;-70
2023/12/09 00:46:07;;;;;;;;;;;6.50;99.90;;;5.93;100.00;97645.13;5077433;28;1902;-70
2023/12/09 00:48:34;;;;;;;;;;;6.60;99.90;;;5.89;100.00;97645.25;5076014;28;1473;-70
2023/12/09 00:51:01;;;;;;;;;;;6.50;99.90;;;5.97;100.00;97657.06;5078187;28;2272;-70
2023/12/09 00:53:28;;;;;;;;;;;6.60;99.90;;;5.95;100.00;97653.69;5078808;28;1470;-69
2023/12/09 00:55:55;;;;;;;;;;;6.60;99.90;;;5.98;100.00;97655.38;5081281;28;1635;-70
2023/12/09 00:58:22;;;;;;;;;;;6.60;99.90;;;5.94;100.00;97659.72;5079118;28;1776;-70
2023/12/09 01:00:49;;;;;;;;;;;6.60;99.90;;;5.97;100.00;97658.81;5076716;28;1542;-70
2023/12/09 01:03:16;;;;;;;;;;;6.60;99.90;;;5.99;100.00;97664.78;5074152;28;3132;-70
2023/12/09 01:05:43;;;;;;;;;;;6.60;99.90;;;6.02;100.00;97654.38;5079050;28;1981;-70
2023/12/09 01:08:10;;;;;;;;;;;6.60;99.90;;;6.04;100.00;97656.06;5082954;28;986;-70
2023/12/09 01:10:37;;;;;;;;;;;6.60;99.90;;;5.98;100.00;97668.25;5081142;28;1443;-70
2023/12/09 01:13:04;;;;;;;;;;;6.60;99.90;;;5.94;100.00;97670.03;5080884;28;1457;-70
2023/12/09 01:15:30;;;;;;;;;;;6.60;99.90;;;6.07;100.00;97675.78;5080322;28;1430;-70
2023/12/09 01:17:57;;;;;;;;;;;6.60;99.90;;;5.90;100.00;97670.09;5077091;28;1887;-70
2023/12/09 01:20:24;;;;;;;;;;;6.60;99.90;;;5.96;100.00;97670.84;5078538;28;5129;-70
2023/12/09 01:22:51;;;;;;;;;;;6.70;99.90;;;6.02;100.00;97669.84;5077784;28;1343;-70
2023/12/09 01:25:18;;;;;;;;;;;6.60;99.90;;;5.94;100.00;97676.91;5077634;28;1384;-71
2023/12/09 01:27:45;;;;;;;;;;;6.70;99.90;;;6.05;100.00;97669.81;5080329;28;1902;-70
2023/12/09 01:30:12;;;;;;;;;;;6.60;99.90;;;6.15;100.00;97665.28;5078079;28;1456;-70
2023/12/09 01:32:40;;;;;;;;;;;6.60;99.90;;;6.03;100.00;97667.25;5076655;28;1374;-70
2023/12/09 01:35:07;;;;;;;;;;;6.50;99.90;;;5.91;100.00;97661.47;5074266;28;1409;-70
2023/12/09 01:37:34;;;;;;;;;;;6.60;99.90;;;6.07;100.00;97668.88;5082589;28;1453;-70
2023/12/09 01:40:01;;;;;;;;;;;6.50;99.90;;;5.88;100.00;97667.56;5079178;28;1439;-70
2023/12/09 01:42:28;;;;;;;;;;;6.60;99.90;;;6.05;100.00;97672.38;5077474;28;1851;-70
2023/12/09 01:44:55;;;;;;;;;;;6.60;99.90;;;5.74;100.00;97667.03;5078885;28;1641;-70
2023/12/09 01:47:23;;;;;;;;;;;6.60;99.90;;;5.94;100.00;97672.63;5076842;28;1971;-70
2023/12/09 01:49:50;;;;;;;;;;;6.60;99.90;;;5.88;100.00;97672.72;5061843;28;1392;-70
2023/12/09 01:52:17;;;;;;;;;;;6.60;99.90;;;5.88;100.00;97672.72;5076409;28;1506;-69
2023/12/09 01:54:44;;;;;;;;;;;6.60;99.90;;;5.89;100.00;97678.72;5095431;28;1517;-70
2023/12/09 01:57:11;;;;;;;;;;;6.60;99.90;;;5.95;100.00;97681.19;5077211;28;1703;-69
2023/12/09 01:59:38;;;;;;;;;;;6.60;99.90;;;5.94;100.00;97675.19;5081761;28;1409;-69
2023/12/09 02:02:05;;;;;;;;;;;6.60;99.90;;;5.99;100.00;97680.25;5080108;28;1431;-70
2023/12/09 02:04:32;;;;;;;;;;;6.50;99.90;;;5.87;100.00;97678.75;5079124;28;1376;-70
2023/12/09 02:06:59;;;;;;;;;;;6.50;99.90;;;5.82;100.00;97662.56;5064834;28;1910;-70
2023/12/09 02:09:25;;;;;;;;;;;6.50;99.90;;;5.84;100.00;97664.22;5079204;28;1411;-69
2023/12/09 02:12:39;;;;;;;;;;;6.60;99.90;;;5.81;100.00;97656.53;5075940;28;1447;-69
2023/12/09 02:15:11;;;;;;;;;;;6.60;99.90;;;5.76;100.00;97636.94;5057697;28;3092;-70
2023/12/09 02:17:57;;;;;;;;;;;6.60;99.90;;;5.71;100.00;97629.31;5079147;28;1439;-70
2023/12/09 02:20:26;;;;;;;;;;;6.60;99.90;;;5.65;100.00;97621.72;5085093;28;5080;-69
2023/12/09 02:23:06;;;;;;;;;;;6.50;99.90;;;5.64;100.00;97610.56;5085702;28;1405;-69
2023/12/09 02:25:34;;;;;;;;;;;6.50;99.90;;;5.54;100.00;97600.50;5082027;28;1724;-70
2023/12/09 02:28:12;;;;;;;;;;;6.50;99.90;;;5.53;100.00;97603.97;5079995;28;2001;-70
2023/12/09 02:30:58;;;;;;;;;;;6.50;99.90;;;5.47;100.00;97602.34;5078351;28;1441;-69
2023/12/09 02:33:25;;;;;;;;;;;6.40;99.90;;;5.60;100.00;97593.50;5080610;28;1374;-70
2023/12/09 02:35:53;;;;;;;;;;;6.40;99.90;;;5.57;100.00;97591.00;5079695;28;1416;-69
2023/12/09 02:38:21;;;;;;;;;;;6.30;99.90;;;5.53;100.00;97591.94;5082709;28;1337;-70
2023/12/09 02:40:49;;;;;;;;;;;6.30;99.90;;;5.35;100.00;97589.78;5068632;28;1349;-69
2023/12/09 02:43:16;;;;;;;;;;;6.30;99.90;;;5.39;100.00;97602.53;5081854;28;1452;-69
2023/12/09 02:45:46;;;;;;;;;;;6.30;99.90;;;5.41;100.00;97603.34;5082401;28;1935;-69
2023/12/09 02:48:13;;;;;;;;;;;6.20;99.90;;;5.30;100.00;97595.00;5078061;28;1897;-69
2023/12/09 02:50:40;;;;;;;;;;;6.20;99.90;;;5.35;100.00;97589.78;5081697;28;1384;-69
2023/12/09 02:53:08;;;;;;;;;;;6.10;99.90;;;5.27;100.00;97586.50;5072345;28;1359;-69
2023/12/09 02:55:34;;;;;;;;;;;6.10;99.90;;;5.31;100.00;97586.41;5082895;28;3219;-69
2023/12/09 02:58:01;;;;;;;;;;;6.10;99.90;;;5.32;100.00;97576.97;5082385;28;1363;-69
2023/12/09 03:00:28;;;;;;;;;;;6.10;99.90;;;5.34;100.00;97577.78;5079408;28;1449;-69
2023/12/09 03:02:55;;;;;;;;;;;6.10;99.90;;;5.29;100.00;97571.88;5081604;28;1433;-70
2023/12/09 03:05:22;;;;;;;;;;;6.10;99.90;;;5.27;100.00;97569.34;5081451;28;1355;-69
2023/12/09 03:07:49;;;;;;;;;;;6.10;99.90;;;5.48;100.00;97585.22;5083173;28;1922;-69
2023/12/09 03:10:16;;;;;;;;;;;6.10;99.90;;;5.33;100.00;97579.50;5079204;28;1793;-69
2023/12/09 03:12:43;;;;;;;;;;;6.20;99.90;;;5.29;100.00;97589.88;5083236;28;1541;-70
2023/12/09 03:15:10;;;;;;;;;;;6.20;99.90;;;5.36;100.00;97588.88;5081809;28;1356;-69
2023/12/09 03:17:37;;;;;;;;;;;6.10;99.90;;;5.36;100.00;97587.16;5077732;28;1273;-69
2023/12/09 03:20:08;;;;;;;;;;;6.10;99.90;;;5.41;100.00;97592.22;5080097;28;5116;-69
2023/12/09 03:22:35;;;;;;;;;;;6.10;99.90;;;5.44;100.00;97587.00;5079776;28;1418;-69
2023/12/09 03:25:02;;;;;;;;;;;6.20;99.90;;;5.28;100.00;97580.50;5081903;28;1828;-69
2023/12/09 03:27:29;;;;;;;;;;;6.10;99.90;;;5.37;100.00;97583.69;5078538;28;1902;-69
2023/12/09 03:29:56;;;;;;;;;;;6.10;99.90;;;5.30;100.00;97571.00;5081135;28;1495;-69
2023/12/09 03:32:23;;;;;;;;;;;6.10;99.90;;;5.26;100.00;97571.94;5079051;28;1722;-69
2023/12/09 03:34:50;;;;;;;;;;;6.10;99.90;;;5.35;100.00;97577.75;5076545;28;1327;-69
2023/12/09 03:37:17;;;;;;;;;;;6.20;99.90;;;5.30;100.00;97577.00;5076835;28;1416;-69
2023/12/09 03:39:44;;;;;;;;;;;6.20;99.90;;;5.31;100.00;97583.81;5084219;28;3214;-70
2023/12/09 03:42:11;;;;;;;;;;;6.20;99.90;;;5.33;100.00;97576.91;5078416;28;1442;-70
2023/12/09 03:44:37;;;;;;;;;;;6.20;99.90;;;5.38;100.00;97585.41;5078487;28;1412;-70
2023/12/09 03:47:06;;;;;;;;;;;6.10;99.90;;;5.37;100.00;97582.88;5079673;28;1989;-70
2023/12/09 03:49:47;;;;;;;;;;;6.10;99.90;;;5.37;100.00;97577.72;5075889;28;1309;-70
2023/12/09 03:52:14;;;;;;;;;;;6.20;99.90;;;5.34;100.00;97588.94;5078298;28;1872;-70
2023/12/09 03:54:44;;;;;;;;;;;6.10;99.90;;;5.33;100.00;97579.50;5082084;28;1278;-70
2023/12/09 03:57:13;;;;;;;;;;;6.10;99.90;;;5.28;100.00;97571.03;5079934;28;1736;-70
2023/12/09 03:59:40;;;;;;;;;;;6.20;99.90;;;5.43;100.00;97591.31;5079430;28;1669;-70
2023/12/09 04:02:07;;;;;;;;;;;6.20;99.90;;;5.34;100.00;97564.94;5080257;28;1678;-69
2023/12/09 04:04:38;;;;;;;;;;;6.20;99.90;;;5.40;100.00;97588.78;5076380;28;1340;-70
2023/12/09 04:07:06;;;;;;;;;;;6.20;99.90;;;5.28;100.00;97567.63;5076703;28;2137;-70
2023/12/09 04:09:32;;;;;;;;;;;6.20;99.90;;;5.52;100.00;97579.97;5078569;28;1233;-70
2023/12/09 04:12:00;;;;;;;;;;;6.20;99.90;;;5.47;100.00;97579.19;5081551;28;1311;-70
2023/12/09 04:14:27;;;;;;;;;;;6.20;99.90;;;5.47;100.00;97568.91;5080439;28;1289;-70
2023/12/09 04:16:53;;;;;;;;;;;6.20;99.90;;;5.49;100.00;97571.44;5077109;28;1446;-69
2023/12/09 04:19:20;;;;;;;;;;;6.20;99.90;;;5.47;100.00;97568.06;5076652;28;5021;-69
2023/12/09 04:21:47;;;;;;;;;;;6.20;99.90;;;5.40;100.00;97560.47;5077028;28;3151;-69
2023/12/09 04:24:14;;;;;;;;;;;6.20;99.90;;;5.36;100.00;97563.13;5076013;28;1301;-70
2023/12/09 04:26:41;;;;;;;;;;;6.20;99.90;;;5.45;100.00;97563.81;5075208;28;1967;-70
2023/12/09 04:29:08;;;;;;;;;;;6.20;99.90;;;5.42;100.00;97563.84;5075320;28;1360;-70
2023/12/09 04:31:35;;;;;;;;;;;6.20;99.90;;;5.38;100.00;97562.25;5075453;28;1309;-69
2023/12/09 04:34:02;;;;;;;;;;;6.30;99.90;;;5.45;100.00;97568.06;5078913;28;1975;-69
2023/12/09 04:36:29;;;;;;;;;;;6.30;99.90;;;5.41;100.00;97556.19;5078107;28;1393;-69
2023/12/09 04:38:55;;;;;;;;;;;6.30;99.90;;;5.34;100.00;97552.06;5078085;28;1225;-70
2023/12/09 04:41:22;;;;;;;;;;;6.30;99.90;;;5.58;100.00;97556.63;5078199;28;1173;-70
2023/12/09 04:43:50;;;;;;;;;;;6.30;99.90;;;5.45;100.00;97540.63;5073239;28;1760;-69
2023/12/09 04:46:17;;;;;;;;;;;6.20;99.90;;;5.45;100.00;97540.63;5076119;28;1347;-69
2023/12/09 04:48:44;;;;;;;;;;;6.20;99.90;;;5.40;100.00;97539.88;5078790;28;2051;-69
2023/12/09 04:51:15;;;;;;;;;;;6.20;99.90;;;5.51;100.00;97537.06;5073871;28;1306;-69
2023/12/09 04:53:42;;;;;;;;;;;6.30;99.90;;;5.73;100.00;97536.56;5064910;28;1319;-69
2023/12/09 04:56:09;;;;;;;;;;;6.20;99.90;;;5.51;100.00;97526.75;5077420;28;1346;-69
2023/12/09 04:58:36;;;;;;;;;;;6.30;99.90;;;5.51;100.00;97524.19;5083264;28;1304;-69
2023/12/09 05:01:03;;;;;;;;;;;6.30;99.90;;;5.42;100.00;97520.09;5079755;28;1353;-69
2023/12/09 05:03:30;;;;;;;;;;;6.30;99.90;;;5.49;100.00;97510.50;5080018;28;2951;-69
2023/12/09 05:05:59;;;;;;;;;;;6.30;99.90;;;5.50;100.00;97517.34;5079718;28;1094;-69
2023/12/09 05:08:27;;;;;;;;;;;6.30;99.90;;;5.60;100.00;97513.66;5080552;28;1973;-69
2023/12/09 05:10:54;;;;;;;;;;;6.30;99.90;;;5.55;100.00;97509.53;5078229;28;1630;-69
2023/12/09 05:13:22;;;;;;;;;;;6.40;99.90;;;5.61;100.00;97510.22;5076670;28;1394;-69
2023/12/09 05:15:49;;;;;;;;;;;6.40;99.90;;;5.53;100.00;97501.81;5077666;28;1103;-69
2023/12/09 05:18:16;;;;;;;;;;;6.30;99.90;;;5.57;100.00;97497.47;5078351;28;2008;-69
2023/12/09 05:20:44;;;;;;;;;;;6.40;99.90;;;5.55;100.00;97499.22;5075003;28;5079;-69
2023/12/09 05:23:11;;;;;;;;;;;6.40;99.90;;;5.56;100.00;97488.88;5081041;28;1390;-69
2023/12/09 05:25:38;;;;;;;;;;;6.40;99.90;;;5.61;100.00;97493.91;5076560;28;1313;-69
2023/12/09 05:28:05;;;;;;;;;;;6.40;99.90;;;5.61;100.00;97487.06;5076696;28;2013;-69
2023/12/09 05:30:32;;;;;;;;;;;6.40;99.90;;;5.56;100.00;97476.00;5081805;28;1879;-69
2023/12/09 05:32:59;;;;;;;;;;;6.40;99.90;;;5.63;100.00;97469.84;5079028;28;1295;-69
2023/12/09 05:35:26;;;;;;;;;;;6.40;99.90;;;5.59;100.00;97465.66;5076318;28;1424;-69
2023/12/09 05:37:53;;;;;;;;;;;6.40;99.90;;;5.59;100.00;97457.06;5079876;28;1349;-69
2023/12/09 05:40:20;;;;;;;;;;;6.40;99.90;;;5.61;100.00;97457.84;5080050;28;1445;-69
2023/12/09 05:42:46;;;;;;;;;;;6.40;99.90;;;5.63;100.00;97451.81;5076677;28;1352;-69
2023/12/09 05:45:13;;;;;;;;;;;6.50;99.90;;;5.64;100.00;97458.66;5079779;28;1345;-69
2023/12/09 05:47:40;;;;;;;;;;;6.50;99.90;;;5.67;100.00;97457.72;5077928;28;1898;-69
2023/12/09 05:50:08;;;;;;;;;;;6.50;99.90;;;5.63;100.00;97456.09;5077342;28;1673;-69
2023/12/09 05:52:35;;;;;;;;;;;6.50;99.90;;;5.63;100.00;97451.81;5079503;28;1368;-69
2023/12/09 05:55:02;;;;;;;;;;;6.50;99.90;;;5.66;100.00;97451.72;5081299;28;1517;-69
2023/12/09 05:57:29;;;;;;;;;;;6.50;99.90;;;5.68;100.00;97463.72;5078829;28;1408;-69
2023/12/09 05:59:56;;;;;;;;;;;6.50;99.90;;;5.69;100.00;97460.25;5086258;28;3098;-69
2023/12/09 06:02:22;;;;;;;;;;;6.60;99.90;;;5.82;100.00;97467.66;5083801;28;1365;-69
2023/12/09 06:04:50;;;;;;;;;;;6.50;99.90;;;5.73;100.00;97457.56;5078385;28;1095;-69
2023/12/09 06:07:17;;;;;;;;;;;6.50;99.90;;;5.83;100.00;97442.72;5085831;28;2028;-69
2023/12/09 06:09:44;;;;;;;;;;;6.50;99.90;;;5.74;100.00;97450.69;5079990;28;1338;-69
2023/12/09 06:12:11;;;;;;;;;;;6.50;99.90;;;5.76;100.00;97454.91;5085588;28;1904;-69
2023/12/09 06:14:38;;;;;;;;;;;6.60;99.90;;;5.77;100.00;97458.31;5095225;27;1248;-69
2023/12/09 06:17:04;;;;;;;;;;;6.60;99.90;;;5.83;100.00;97461.59;5081086;28;1321;-69
2023/12/09 06:19:32;;;;;;;;;;;6.50;99.90;;;5.89;100.00;97460.59;5083261;28;5049;-69
2023/12/09 06:21:59;;;;;;;;;;;6.50;99.90;;;6.00;100.00;97462.94;5082007;28;1850;-69
2023/12/09 06:24:27;;;;;;;;;;;6.60;99.90;;;5.94;100.00;97463.06;5081284;28;1285;-69
2023/12/09 06:26:54;;;;;;;;;;;6.60;99.90;;;5.96;100.00;97458.75;5083715;28;1881;-69
2023/12/09 06:29:21;;;;;;;;;;;6.50;99.90;;;5.93;100.00;97458.78;5081799;28;1917;-69
2023/12/09 06:31:48;;;;;;;;;;;6.60;99.90;;;6.01;100.00;97449.16;5083939;28;1352;-68
2023/12/09 06:34:15;;;;;;;;;;;6.60;99.90;;;5.95;100.00;97439.84;5080220;28;1376;-69
2023/12/09 06:36:42;;;;;;;;;;;6.60;99.90;;;5.82;100.00;97423.00;5081741;28;1317;-69
2023/12/09 06:39:08;;;;;;;;;;;6.60;99.90;;;5.89;100.00;97434.84;5081126;28;1363;-69
2023/12/09 06:41:39;;;;;;;;;;;6.60;99.90;;;5.85;100.00;97444.38;5079072;28;3045;-69
2023/12/09 06:44:06;;;;;;;;;;;6.60;99.90;;;5.80;100.00;97441.06;5082276;28;1614;-69
2023/12/09 06:46:37;;;;;;;;;;;6.60;99.90;;;5.93;100.00;97448.47;5076903;28;1369;-69
2023/12/09 06:49:05;;;;;;;;;;;6.50;99.90;;;5.80;100.00;97433.34;5078037;28;1906;-69
2023/12/09 06:51:33;;;;;;;;;;;6.50;99.90;;;5.89;100.00;97434.84;5081551;28;1364;-69
2023/12/09 06:54:02;;;;;;;;;;;6.60;99.90;;;5.94;100.00;97445.03;5080321;28;1322;-69
2023/12/09 06:56:30;;;;;;;;;;;6.60;99.90;;;6.01;100.00;97451.75;5077275;28;1841;-69
2023/12/09 06:58:56;;;;;;;;;;;6.60;99.90;;;5.99;100.00;97449.19;5079095;28;1640;-69
2023/12/09 07:01:24;;;;;;;;;;;6.60;99.90;;;6.02;100.00;97450.84;5084127;28;1289;-69
2023/12/09 07:03:51;;;;;;;;;;;6.50;99.90;;;5.88;100.00;97443.44;5081048;28;1406;-69
2023/12/09 07:06:23;;;;;;;;;;;6.50;99.90;;;5.99;100.00;97441.47;5083239;28;1241;-69
2023/12/09 07:08:50;;;;;;;;;;;6.50;99.90;;;6.07;100.00;97455.00;5078176;28;1974;-69
2023/12/09 07:11:17;;;;;;;;;;;6.50;99.90;;;5.92;100.00;97439.06;5082175;28;1567;-69
2023/12/09 07:13:44;;;;;;;;;;;6.50;99.90;;;6.08;100.00;97458.41;5076606;28;1439;-69
2023/12/09 07:16:13;;;;;;;;;;;6.50;99.90;;;6.01;100.00;97455.16;5078498;28;1185;-69
2023/12/09 07:18:43;;;;;;;;;;;6.50;99.90;;;5.87;100.00;97449.50;5080067;28;1339;-69
2023/12/09 07:21:10;;;;;;;;;;;6.50;99.90;;;5.92;100.00;97450.22;5078335;28;5038;-69
2023/12/09 07:23:37;;;;;;;;;;;6.50;99.90;;;6.01;100.00;97464.63;5079193;28;3016;-69
2023/12/09 07:26:04;;;;;;;;;;;6.40;99.90;;;5.87;100.00;97455.47;5078035;28;1392;-69
2023/12/09 07:28:31;;;;;;;;;;;6.40;99.90;;;5.91;100.00;97445.09;5078753;28;1910;-69
2023/12/09 07:30:58;;;;;;;;;;;6.40;99.90;;;5.86;100.00;97445.22;5075505;28;1408;-69
2023/12/09 07:33:25;;;;;;;;;;;6.50;99.90;;;5.83;100.00;97453.88;5083276;28;1471;-69
2023/12/09 07:35:52;;;;;;;;;;;6.40;99.90;;;5.89;100.00;97447.72;5078464;28;1230;-69
2023/12/09 07:38:19;;;;;;;;;;;6.50;99.90;;;5.92;100.00;97452.78;5077568;28;1861;-69
2023/12/09 07:40:47;;;;;;;;;;;6.40;99.90;;;5.83;100.00;97463.31;5077174;28;1375;-69
2023/12/09 07:43:14;;;;;;;;;;;6.40;99.90;;;5.88;100.00;97451.16;5077504;28;1665;-69
2023/12/09 07:45:41;;;;;;;;;;;6.40;99.90;;;5.81;100.00;97442.75;5076292;28;1352;-69
2023/12/09 07:48:11;;;;;;;;;;;6.50;99.90;;;5.83;100.00;97440.97;5081659;28;1901;-69
2023/12/09 07:50:38;;;;;;;;;;;6.40;99.90;;;5.77;100.00;97437.72;5074970;28;1961;-69
2023/12/09 07:53:04;;;;;;;;;;;6.50;99.90;;;5.86;100.00;97438.34;5078057;28;1387;-69
2023/12/09 07:55:31;;;;;;;;;;;6.40;99.90;;;5.76;100.00;97428.31;5077780;28;1737;-69
2023/12/09 07:57:59;;;;;;;;;;;6.30;99.90;;;5.89;100.00;97403.09;5077699;28;1297;-69
2023/12/09 08:00:27;;;;;;;;;;;6.40;99.90;;;5.80;100.00;97412.75;5077496;28;1420;-69
2023/12/09 08:02:57;;;;;;;;;;;6.40;99.90;;;5.97;100.00;97412.31;5075466;28;1414;-69
2023/12/09 08:05:24;;;;;;;;;;;6.40;99.90;;;5.87;100.00;97393.66;5077409;28;3071;-69
2023/12/09 08:07:51;;;;;;;;;;;6.50;99.90;;;5.82;100.00;97392.94;5077423;28;1996;-69
2023/12/09 08:10:18;;;;;;;;;;;6.50;99.90;;;5.89;100.00;97413.41;5075909;28;1333;-69
2023/12/09 08:12:47;;;;;;;;;;;6.50;99.90;;;5.90;100.00;97407.34;5074586;28;1316;-69
2023/12/09 08:15:14;;;;;;;;;;;6.50;99.90;;;5.87;100.00;97414.28;5078243;28;1356;-69
2023/12/09 08:17:41;;;;;;;;;;;6.50;99.90;;;5.92;100.00;97419.31;5076922;28;1395;-70
2023/12/09 08:20:10;;;;;;;;;;;6.60;99.90;;;5.95;100.00;97403.78;5076969;28;4993;-69
2023/12/09 08:22:40;;;;;;;;;;;6.50;99.90;;;6.03;100.00;97404.44;5074330;28;1381;-69
2023/12/09 08:25:08;;;;;;;;;;;6.60;99.90;;;6.06;100.00;97406.91;5076064;28;1317;-69
2023/12/09 08:27:38;;;;;;;;;;;6.60;99.90;;;6.16;100.00;97394.63;5079290;28;1451;-69
2023/12/09 08:30:10;;;;;;;;;;;6.60;99.90;;;6.03;100.00;97394.13;5074939;28;1420;-69
2023/12/09 08:32:41;;;;;;;;;;;6.70;99.90;;;6.07;100.00;97388.00;5077243;28;1386;-69
2023/12/09 08:35:09;;;;;;;;;;;6.70;99.90;;;5.97;100.00;97378.00;5077839;28;2110;-69
2023/12/09 08:37:40;;;;;;;;;;;6.60;99.90;;;5.89;100.00;97374.75;5059275;28;1374;-69
2023/12/09 08:40:10;;;;;;;;;;;6.60;99.90;;;5.97;100.00;97381.41;5079174;28;1214;-69
2023/12/09 08:42:38;;;;;;;;;;;6.60;99.90;;;6.00;100.00;97365.03;5073874;28;1813;-69
2023/12/09 08:45:08;;;;;;;;;;;6.50;99.90;;;5.87;100.00;97390.25;5076613;28;1447;-69
2023/12/09 08:47:35;;;;;;;;;;;6.50;99.90;;;5.89;100.00;97369.59;5074484;28;3156;-69
2023/12/09 08:50:04;;;;;;;;;;;6.50;99.90;;;5.95;100.00;97359.97;5071749;28;2027;-69
2023/12/09 08:52:47;;;;;;;;;;;6.50;99.90;;;5.90;100.00;97353.25;5083002;28;1315;-70
2023/12/09 08:55:14;;;;;;;;;;;6.40;99.90;;;5.87;100.00;97334.41;5076126;28;1381;-70
2023/12/09 08:57:40;;;;;;;;;;;6.50;99.90;;;5.85;100.00;97343.91;5082133;28;1304;-69
2023/12/09 09:00:08;;;;;;;;;;;6.40;99.90;;;5.78;100.00;97347.53;5083273;28;1175;-69
2023/12/09 09:02:35;;;;;;;;;;;6.50;99.90;;;5.81;100.00;97329.41;5084290;28;1832;-69
2023/12/09 09:05:03;;;;;;;;;;;6.50;99.90;;;5.80;100.00;97342.38;5076301;28;1297;-69
2023/12/09 09:07:30;;;;;;;;;;;6.50;99.90;;;5.76;100.00;97351.88;5076955;28;1333;-69
2023/12/09 09:09:57;;;;;;;;;;;6.50;99.90;;;5.86;100.00;97353.34;5081100;28;1990;-69
2023/12/09 09:12:24;;;;;;;;;;;6.40;99.90;;;5.81;100.00;97342.31;5081414;28;1264;-69
2023/12/09 09:14:51;;;;;;;;;;;6.40;99.90;;;5.81;100.00;97351.75;5078979;28;1395;-70
2023/12/09 09:17:21;;;;;;;;;;;6.40;99.90;;;5.78;100.00;97347.53;5082656;28;1984;-69
2023/12/09 09:19:48;;;;;;;;;;;6.50;99.90;;;5.79;100.00;97359.56;5077420;28;4961;-69
2023/12/09 09:22:15;;;;;;;;;;;6.40;99.90;;;5.82;100.00;97343.16;5080930;28;1423;-70
2023/12/09 09:24:42;;;;;;;;;;;6.40;99.90;;;5.93;100.00;97356.59;5098765;28;1497;-69
2023/12/09 09:27:09;;;;;;;;;;;6.40;99.90;;;5.98;100.00;97359.09;5079265;28;1418;-69
2023/12/09 09:29:36;;;;;;;;;;;6.40;99.90;;;5.91;100.00;97365.22;5078023;28;3003;-69
2023/12/09 09:32:03;;;;;;;;;;;6.40;99.90;;;5.83;100.00;97347.41;5075769;28;1487;-70
2023/12/09 09:34:30;;;;;;;;;;;6.50;99.90;;;5.94;100.00;97340.28;5077855;28;1329;-69
2023/12/09 09:36:57;;;;;;;;;;;6.50;99.90;;;5.89;100.00;97333.53;5080949;28;1436;-69
2023/12/09 09:39:24;;;;;;;;;;;6.50;99.90;;;5.96;100.00;97325.63;5076923;28;1341;-69
2023/12/09 09:42:10;;;;;;;;;;;6.60;99.90;;;5.99;100.00;97325.53;5075503;28;1337;-69
2023/12/09 09:44:43;;;;;;;;;;;6.60;99.90;;;5.95;100.00;97323.91;5076747;28;1499;-69
2023/12/09 09:47:11;;;;;;;;;;;6.60;99.90;;;6.01;100.00;97335.81;5075008;28;1355;-69
2023/12/09 09:49:38;;;;;;;;;;;6.60;99.90;;;5.94;100.00;97323.94;5072811;28;1985;-70
2023/12/09 09:52:09;;;;;;;;;;;6.60;99.90;;;6.04;100.00;97328.84;5075743;28;1397;-69
2023/12/09 09:54:37;;;;;;;;;;;6.70;99.90;;;6.00;100.00;97326.41;5080529;28;1558;-69
2023/12/09 09:57:07;;;;;;;;;;;6.60;99.90;;;6.17;100.00;97302.69;5075604;28;1407;-70
2023/12/09 09:59:33;;;;;;;;;;;6.60;99.90;;;6.10;100.00;97303.78;5092520;28;1827;-70
2023/12/09 10:02:03;;;;;;;;;;;6.70;99.90;;;6.01;100.00;97305.72;5075969;28;1597;-69
2023/12/09 10:04:30;;;;;;;;;;;6.70;99.90;;;6.15;100.00;97314.78;5077469;28;1454;-69
2023/12/09 10:06:58;;;;;;;;;;;6.80;99.90;;;6.11;100.00;97298.56;5084807;28;1424;-69
2023/12/09 10:09:25;;;;;;;;;;;6.80;99.90;;;6.07;100.00;97309.88;5075234;28;1910;-69
2023/12/09 10:11:52;;;;;;;;;;;6.70;99.90;;;6.09;100.00;97305.53;5075390;28;1526;-69
2023/12/09 10:14:19;;;;;;;;;;;6.80;99.90;;;6.17;100.00;97295.81;5076794;28;1366;-69
2023/12/09 10:16:46;;;;;;;;;;;6.70;99.90;;;6.12;100.00;97295.09;5079571;28;1436;-70
2023/12/09 10:19:14;;;;;;;;;;;6.80;99.90;;;6.13;100.00;97280.47;5076558;28;4950;-70
2023/12/09 10:21:42;;;;;;;;;;;6.80;99.90;;;6.13;100.00;97268.44;5081198;28;1438;-69
2023/12/09 10:24:09;;;;;;;;;;;6.80;99.90;;;6.25;100.00;97267.25;5076340;28;1561;-69
2023/12/09 10:26:36;;;;;;;;;;;6.80;99.90;;;6.23;100.00;97258.72;5078713;28;2897;-70
2023/12/09 10:29:03;;;;;;;;;;;6.80;99.90;;;6.21;100.00;97240.72;5082615;28;1902;-70
2023/12/09 10:31:30;;;;;;;;;;;6.80;99.90;;;6.21;100.00;97230.41;5078832;28;1465;-70
2023/12/09 10:33:57;;;;;;;;;;;6.90;99.90;;;6.28;100.00;97221.59;5064495;28;1665;-70
2023/12/09 10:36:24;;;;;;;;;;;6.90;99.90;;;6.29;100.00;97212.13;5065306;28;1440;-70
2023/12/09 10:38:53;;;;;;;;;;;6.90;99.90;;;6.35;100.00;97200.78;5081747;28;1438;-69
2023/12/09 10:41:21;;;;;;;;;;;6.90;99.90;;;6.45;100.00;97197.88;5087741;28;1454;-70
2023/12/09 10:43:48;;;;;;;;;;;6.90;99.90;;;6.36;100.00;97187.00;5080272;28;2122;-69
2023/12/09 10:46:15;;;;;;;;;;;6.90;99.90;;;6.40;100.00;97168.78;5077419;28;1483;-69
2023/12/09 10:48:42;;;;;;;;;;;7.00;99.90;;;6.42;100.00;97145.56;5082420;28;1913;-70
2023/12/09 10:51:09;;;;;;;;;;;7.00;99.90;;;6.51;100.00;97137.50;5077003;28;1427;-70
2023/12/09 10:53:36;;;;;;;;;;;7.00;99.90;;;6.53;100.00;97137.47;5073634;28;1450;-70
2023/12/09 10:56:04;;;;;;;;;;;7.10;99.90;;;6.43;100.00;97121.44;5077595;28;1737;-71
2023/12/09 10:58:32;;;;;;;;;;;7.10;99.90;;;6.46;100.00;97108.47;5078625;28;1592;-70
2023/12/09 11:01:01;;;;;;;;;;;7.00;99.90;;;6.47;100.00;97100.66;5075885;28;1411;-70
2023/12/09 11:03:29;;;;;;;;;;;7.10;99.90;;;6.37;100.00;97089.00;5082538;28;1620;-70
2023/12/09 11:05:58;;;;;;;;;;;7.10;99.90;;;6.40;100.00;97075.16;5081366;28;1759;-70
2023/12/09 11:08:28;;;;;;;;;;;7.10;99.90;;;6.43;100.00;97072.47;5076587;28;1898;-71
2023/12/09 11:10:56;;;;;;;;;;;7.10;99.90;;;6.51;100.00;97067.06;5081422;28;1655;-71
2023/12/09 11:13:29;;;;;;;;;;;7.10;99.90;;;6.40;100.00;97057.13;5082972;28;1482;-71
2023/12/09 11:16:18;;;;;;;;;;;7.00;99.90;;;6.41;100.00;97051.06;5077522;28;1492;-71
2023/12/09 11:18:53;;;;;;;;;;;7.00;99.90;;;6.53;100.00;97042.91;5084466;28;1504;-70
2023/12/09 11:21:23;;;;;;;;;;;7.10;99.90;;;6.51;100.00;97024.06;5077219;28;5350;-70
2023/12/09 11:23:51;;;;;;;;;;;7.10;99.90;;;6.50;100.00;97014.66;5077271;28;2955;-70
2023/12/09 11:26:36;;;;;;;;;;;7.10;99.90;;;6.49;100.00;97006.06;5084242;28;1439;-69
2023/12/09 11:29:08;;;;;;;;;;;7.20;99.90;;;6.52;100.00;97012.00;5086025;28;1901;-70
2023/12/09 11:31:36;;;;;;;;;;;7.20;99.90;;;6.62;100.00;97011.63;5078134;28;1479;-70
2023/12/09 11:34:04;;;;;;;;;;;7.20;99.90;;;6.60;100.00;97008.28;5083582;28;1419;-70
2023/12/09 11:36:35;;;;;;;;;;;7.10;99.90;;;6.57;100.00;96994.63;5081763;28;1392;-70
2023/12/09 11:39:04;;;;;;;;;;;7.20;99.90;;;6.47;100.00;96983.81;5078437;28;1665;-70